Time;durP1;ratioP1;P1;durP2;ratioP2;P2;SDS_P1;SDS_P2;PMS_P1;PMS_P2;Temp;Humidity;BMP_temperature;BMP_pressure;BME280_temperature;BME280_humidity;BME280_pressure;Samples;Min_cycle;Max_cycle;Signal;HPM_P1;HPM_P2
2021/06/15 00:01:16;;;;;;;3.13;1.23;;;12.00;99.90;;;;;;4140467;28;20083;-57
2021/06/15 00:03:17;;;;;;;1.03;0.83;;;12.00;99.90;;;;;;4140268;28;20026;-57
2021/06/15 00:05:18;;;;;;;1.00;0.83;;;11.90;99.90;;;;;;4140674;28;20037;-54
2021/06/15 00:07:19;;;;;;;1.90;0.77;;;12.00;99.90;;;;;;4139458;28;20054;-56
2021/06/15 00:09:21;;;;;;;1.30;1.00;;;12.00;99.90;;;;;;4149354;28;20146;-57
2021/06/15 00:11:22;;;;;;;1.47;0.93;;;11.90;99.90;;;;;;4142630;28;20050;-58
2021/06/15 00:13:23;;;;;;;2.40;0.93;;;11.90;99.90;;;;;;4140173;28;20425;-58
2021/06/15 00:15:25;;;;;;;2.33;1.33;;;11.90;99.90;;;;;;4139536;28;20817;-56
2021/06/15 00:17:26;;;;;;;8.00;1.77;;;11.90;99.90;;;;;;4139932;28;20042;-57
2021/06/15 00:19:27;;;;;;;4.20;1.10;;;12.00;99.90;;;;;;4139952;28;20045;-50
2021/06/15 00:21:29;;;;;;;2.60;1.00;;;12.00;99.90;;;;;;4139720;28;20533;-56
2021/06/15 00:23:30;;;;;;;1.23;0.70;;;12.00;99.90;;;;;;4138848;28;20037;-55
2021/06/15 00:25:31;;;;;;;2.30;0.90;;;12.10;99.90;;;;;;4139774;28;20080;-56
2021/06/15 00:27:32;;;;;;;2.27;1.03;;;12.10;99.90;;;;;;4139564;28;20038;-56
2021/06/15 00:29:33;;;;;;;5.27;0.80;;;12.20;99.90;;;;;;4140126;28;20026;-56
2021/06/15 00:31:35;;;;;;;1.33;0.60;;;12.20;99.90;;;;;;4156067;28;20037;-55
2021/06/15 00:33:37;;;;;;;2.83;1.00;;;12.20;99.90;;;;;;4155431;28;20045;-55
2021/06/15 00:35:38;;;;;;;4.13;0.60;;;12.10;99.90;;;;;;4155804;28;20064;-56
2021/06/15 00:37:39;;;;;;;2.40;0.80;;;12.10;99.90;;;;;;4154888;28;20045;-53
2021/06/15 00:39:40;;;;;;;3.10;0.87;;;12.10;99.90;;;;;;4138552;28;20085;-58
2021/06/15 00:41:41;;;;;;;2.97;0.80;;;12.10;99.90;;;;;;4155828;28;20034;-57
2021/06/15 00:43:42;;;;;;;2.03;0.50;;;12.20;99.90;;;;;;4150872;28;20116;-58
2021/06/15 00:45:44;;;;;;;1.47;0.97;;;12.20;99.90;;;;;;4139241;28;20030;-56
2021/06/15 00:47:47;;;;;;;0.77;0.70;;;12.20;99.90;;;;;;4140169;28;21022;-56
2021/06/15 00:49:49;;;;;;;1.17;0.70;;;12.20;99.90;;;;;;4139321;28;20099;-55
2021/06/15 00:51:50;;;;;;;1.07;0.80;;;12.20;99.90;;;;;;4139629;28;20151;-57
2021/06/15 00:53:51;;;;;;;1.47;0.97;;;12.20;99.90;;;;;;4139054;28;20418;-57
2021/06/15 00:55:55;;;;;;;2.40;0.80;;;12.20;99.90;;;;;;4139586;28;20030;-55
2021/06/15 00:57:56;;;;;;;0.70;0.67;;;12.20;99.90;;;;;;4139633;28;20041;-55
2021/06/15 00:59:58;;;;;;;3.33;0.70;;;12.30;99.90;;;;;;4138629;28;20054;-57
2021/06/15 01:01:59;;;;;;;1.37;0.60;;;12.30;99.90;;;;;;4139742;28;20081;-54
2021/06/15 01:04:01;;;;;;;3.80;1.07;;;12.40;99.90;;;;;;4139284;28;20036;-58
2021/06/15 01:06:10;;;;;;;1.23;0.63;;;12.40;99.90;;;;;;4139905;28;20438;-57
2021/06/15 01:08:26;;;;;;;1.10;0.77;;;12.50;99.90;;;;;;4120593;28;20081;-55
2021/06/15 01:11:09;;;;;;;1.17;0.60;;;12.60;99.90;;;;;;4139743;28;20042;-58
2021/06/15 01:13:38;;;;;;;0.70;0.50;;;12.50;99.90;;;;;;4107425;28;20049;-58
2021/06/15 01:15:47;;;;;;;0.40;0.40;;;12.50;99.90;;;;;;4138559;28;20150;-58
2021/06/15 01:18:02;;;;;;;0.80;0.50;;;12.50;99.90;;;;;;4139144;28;20050;-59
2021/06/15 01:20:22;;;;;;;2.10;0.60;;;12.50;99.90;;;;;;4138571;28;20863;-57
2021/06/15 01:22:49;;;;;;;1.73;0.77;;;12.50;99.90;;;;;;4139669;28;20034;-56
2021/06/15 01:25:06;;;;;;;1.57;0.70;;;12.50;99.90;;;;;;4138819;28;20038;-58
2021/06/15 01:27:45;;;;;;;3.13;0.57;;;12.40;99.90;;;;;;4138963;28;20045;-54
2021/06/15 01:29:48;;;;;;;3.70;0.50;;;12.30;99.90;;;;;;4139454;28;20042;-59
2021/06/15 01:31:52;;;;;;;3.33;0.70;;;12.30;99.90;;;;;;4142618;28;20030;-58
2021/06/15 01:34:03;;;;;;;2.07;0.63;;;12.30;99.90;;;;;;4141099;28;20042;-59
2021/06/15 01:36:07;;;;;;;2.15;0.60;;;12.30;99.90;;;;;;4142671;28;20080;-58
2021/06/15 01:38:12;;;;;;;2.10;1.07;;;12.30;99.90;;;;;;4142333;28;20514;-54
2021/06/15 01:40:18;;;;;;;1.73;0.60;;;12.30;99.90;;;;;;4142609;28;20037;-56
2021/06/15 01:42:33;;;;;;;1.53;0.67;;;12.30;99.90;;;;;;4141383;28;20054;-58
2021/06/15 01:44:37;;;;;;;1.43;0.87;;;12.30;99.90;;;;;;4142700;28;20363;-59
2021/06/15 01:46:44;;;;;;;2.10;1.33;;;12.30;99.90;;;;;;4141041;28;20037;-58
2021/06/15 01:48:55;;;;;;;1.00;0.70;;;12.30;99.90;;;;;;4142601;28;20092;-59
2021/06/15 01:50:57;;;;;;;;;;;12.30;99.90;;;;;;4142448;28;20022;-57
2021/06/15 01:52:59;;;;;;;1.90;0.50;;;12.30;99.90;;;;;;4141886;28;20341;-58
2021/06/15 01:55:01;;;;;;;1.33;0.80;;;12.30;99.90;;;;;;4144677;28;20075;-58
2021/06/15 01:57:04;;;;;;;0.97;0.63;;;12.30;99.90;;;;;;4157840;28;20037;-58
2021/06/15 01:59:08;;;;;;;1.73;0.77;;;12.30;99.90;;;;;;4158310;28;20061;-57
2021/06/15 02:01:10;;;;;;;2.07;0.60;;;12.30;99.90;;;;;;4149959;28;20030;-57
2021/06/15 02:03:12;;;;;;;0.97;0.57;;;12.30;99.90;;;;;;4141821;28;20501;-59
2021/06/15 02:05:13;;;;;;;0.80;0.70;;;12.30;99.90;;;;;;4142293;28;20026;-60
2021/06/15 02:07:22;;;;;;;3.57;0.50;;;12.30;99.90;;;;;;4141579;28;20054;-59
2021/06/15 02:09:25;;;;;;;1.43;0.70;;;12.20;99.90;;;;;;4142279;28;20030;-59
2021/06/15 02:11:30;;;;;;;1.50;0.70;;;12.20;99.90;;;;;;4141115;28;20532;-58
2021/06/15 02:13:33;;;;;;;0.63;0.40;;;12.30;99.90;;;;;;4142074;28;20800;-59
2021/06/15 02:15:35;;;;;;;1.00;0.47;;;12.30;99.90;;;;;;4142018;28;20402;-56
2021/06/15 02:17:41;;;;;;;0.80;0.70;;;12.40;99.90;;;;;;4124235;28;20038;-58
2021/06/15 02:19:45;;;;;;;1.50;0.60;;;12.40;99.90;;;;;;4141893;28;20045;-58
2021/06/15 02:21:49;;;;;;;2.57;0.60;;;12.40;99.90;;;;;;4141339;28;20100;-58
2021/06/15 02:23:57;;;;;;;1.23;0.50;;;12.50;99.90;;;;;;4141889;28;20709;-57
2021/06/15 02:26:06;;;;;;;2.43;0.50;;;12.40;99.90;;;;;;4141260;28;20092;-56
2021/06/15 02:28:07;;;;;;;1.30;0.50;;;12.40;99.90;;;;;;4156065;28;20087;-58
2021/06/15 02:30:09;;;;;;;2.57;0.40;;;12.50;99.90;;;;;;4157795;28;20100;-58
2021/06/15 02:32:11;;;;;;;0.80;0.50;;;12.50;99.90;;;;;;4142762;28;20041;-57
2021/06/15 02:34:15;;;;;;;1.83;0.90;;;12.50;99.90;;;;;;4122975;28;20624;-58
2021/06/15 02:36:28;;;;;;;3.43;0.60;;;12.50;99.90;;;;;;4142039;28;20470;-59
2021/06/15 02:38:32;;;;;;;0.50;0.50;;;12.50;99.90;;;;;;4140247;28;20042;-57
2021/06/15 02:40:35;;;;;;;1.33;0.83;;;12.50;99.90;;;;;;4142087;28;20058;-58
2021/06/15 02:42:41;;;;;;;2.37;0.77;;;12.50;99.90;;;;;;4140849;28;20030;-56
2021/06/15 02:44:45;;;;;;;1.40;0.73;;;12.60;99.90;;;;;;4141317;28;20085;-56
2021/06/15 02:46:54;;;;;;;1.00;0.87;;;12.50;99.90;;;;;;4140050;28;20821;-58
2021/06/15 02:48:59;;;;;;;1.93;0.57;;;12.50;99.90;;;;;;4141072;28;20068;-60
2021/06/15 02:51:01;;;;;;;4.73;0.87;;;12.60;99.90;;;;;;4141325;28;20026;-58
2021/06/15 02:53:10;;;;;;;1.90;0.20;;;12.60;99.90;;;;;;4140591;28;20104;-59
2021/06/15 02:55:13;;;;;;;0.77;0.50;;;12.60;99.90;;;;;;4140293;28;20041;-57
2021/06/15 02:57:16;;;;;;;3.13;0.53;;;12.60;99.90;;;;;;4141578;28;20906;-59
2021/06/15 02:59:18;;;;;;;0.70;0.50;;;12.60;99.90;;;;;;4141076;28;20659;-59
2021/06/15 03:01:19;;;;;;;1.33;0.60;;;12.60;99.90;;;;;;4140764;28;20041;-59
2021/06/15 03:03:21;;;;;;;2.03;0.40;;;12.70;99.90;;;;;;4140242;28;20037;-57
2021/06/15 03:05:22;;;;;;;1.77;0.50;;;12.70;99.90;;;;;;4140871;28;20092;-59
2021/06/15 03:07:23;;;;;;;0.57;0.37;;;12.70;99.90;;;;;;4140352;28;20088;-59
2021/06/15 03:09:26;;;;;;;3.33;0.50;;;12.70;99.90;;;;;;4140423;28;20643;-56
2021/06/15 03:11:28;;;;;;;1.93;0.60;;;12.70;99.90;;;;;;4141220;28;20417;-60
2021/06/15 03:13:39;;;;;;;0.90;0.70;;;12.70;99.90;;;;;;4140385;28;20556;-58
2021/06/15 03:15:45;;;;;;;1.65;0.80;;;12.70;99.90;;;;;;4141390;28;20021;-58
2021/06/15 03:18:03;;;;;;;4.53;1.10;;;12.70;99.90;;;;;;4151100;28;20095;-59
2021/06/15 03:20:09;;;;;;;1.80;1.10;;;12.70;99.90;;;;;;4157858;28;20041;-57
2021/06/15 03:22:15;;;;;;;1.13;0.60;;;12.80;99.90;;;;;;4156418;28;20026;-58
2021/06/15 03:24:26;;;;;;;2.20;1.00;;;12.80;99.90;;;;;;4157234;28;20069;-59
2021/06/15 03:26:39;;;;;;;1.87;0.50;;;12.80;99.90;;;;;;4155907;28;20038;-58
2021/06/15 03:28:45;;;;;;;2.30;0.60;;;12.80;99.90;;;;;;4156135;28;20026;-60
2021/06/15 03:30:47;;;;;;;1.70;0.87;;;12.90;99.90;;;;;;4150469;28;20032;-57
2021/06/15 03:32:56;;;;;;;1.03;0.63;;;12.90;99.90;;;;;;4122836;28;20038;-59
2021/06/15 03:34:58;;;;;;;1.90;0.43;;;13.00;99.90;;;;;;4140195;28;20038;-58
2021/06/15 03:37:00;;;;;;;0.90;0.60;;;13.00;99.90;;;;;;4140314;28;20096;-57
2021/06/15 03:39:02;;;;;;;0.70;0.60;;;13.00;99.90;;;;;;4139873;28;20018;-57
2021/06/15 03:41:05;;;;;;;3.90;0.97;;;13.00;99.90;;;;;;4141144;28;20050;-57
2021/06/15 03:43:08;;;;;;;1.83;0.43;;;13.00;99.90;;;;;;4154654;28;20029;-59
2021/06/15 03:45:11;;;;;;;1.90;0.60;;;13.10;99.90;;;;;;4157346;28;20091;-56
2021/06/15 03:47:13;;;;;;;1.00;0.60;;;13.10;99.90;;;;;;4156043;28;20095;-59
2021/06/15 03:49:16;;;;;;;1.43;0.70;;;13.10;99.90;;;;;;4156298;28;20037;-56
2021/06/15 03:51:29;;;;;;;0.70;0.60;;;13.20;99.90;;;;;;4156523;28;20079;-58
2021/06/15 03:53:33;;;;;;;3.73;0.80;;;13.20;99.90;;;;;;4156282;28;20091;-58
2021/06/15 03:55:37;;;;;;;3.60;0.50;;;13.20;99.90;;;;;;4155605;28;20026;-57
2021/06/15 03:57:42;;;;;;;1.40;0.60;;;13.30;99.90;;;;;;4156633;28;20021;-58
2021/06/15 03:59:47;;;;;;;3.13;0.77;;;13.30;99.90;;;;;;4155000;28;20119;-59
2021/06/15 04:01:51;;;;;;;3.33;0.80;;;13.20;99.90;;;;;;4140980;28;20046;-58
2021/06/15 04:03:53;;;;;;;2.17;0.80;;;13.30;99.90;;;;;;4125580;28;20097;-58
2021/06/15 04:05:57;;;;;;;3.23;1.37;;;13.30;99.90;;;;;;4140880;28;20074;-59
2021/06/15 04:08:01;;;;;;;0.73;0.60;;;13.30;99.90;;;;;;4141282;28;20528;-59
2021/06/15 04:10:04;;;;;;;1.03;0.47;;;13.30;99.90;;;;;;4155034;28;20045;-56
2021/06/15 04:12:06;;;;;;;2.00;0.70;;;13.30;99.90;;;;;;4155332;28;20053;-60
2021/06/15 04:14:13;;;;;;;2.00;0.70;;;13.30;99.90;;;;;;4155737;28;20087;-57
2021/06/15 04:16:15;;;;;;;1.70;0.40;;;13.30;99.90;;;;;;4155427;28;20115;-56
2021/06/15 04:18:20;;;;;;;2.83;0.40;;;13.40;99.90;;;;;;4154518;28;20037;-60
2021/06/15 04:20:29;;;;;;;1.03;0.60;;;13.40;99.90;;;;;;4155416;28;20111;-59
2021/06/15 04:22:35;;;;;;;1.23;0.60;;;13.50;99.90;;;;;;4155106;28;20381;-60
2021/06/15 04:24:39;;;;;;;1.43;0.60;;;13.50;99.90;;;;;;4139888;28;20042;-58
2021/06/15 04:26:40;;;;;;;2.10;0.60;;;13.60;99.90;;;;;;4139194;28;20092;-59
2021/06/15 04:28:41;;;;;;;2.23;1.23;;;13.70;99.90;;;;;;4140139;28;20088;-60
2021/06/15 04:30:43;;;;;;;3.03;0.70;;;13.70;99.90;;;;;;4142059;28;20026;-56
2021/06/15 04:33:07;;;;;;;2.03;1.00;;;13.80;99.90;;;;;;4139851;28;20037;-54
2021/06/15 04:35:10;;;;;;;0.70;0.53;;;13.90;99.90;;;;;;4138266;28;20140;-57
2021/06/15 04:37:13;;;;;;;1.37;0.83;;;13.90;99.90;;;;;;4139126;28;20101;-56
2021/06/15 04:39:18;;;;;;;1.87;0.50;;;13.90;99.90;;;;;;4141041;28;20528;-58
2021/06/15 04:41:25;;;;;;;1.07;0.50;;;14.00;99.90;;;;;;4155205;28;20061;-55
2021/06/15 04:43:50;;;;;;;4.23;0.50;;;14.10;99.90;;;;;;4154295;28;20359;-59
2021/06/15 04:45:56;;;;;;;1.60;0.60;;;14.20;99.90;;;;;;4156266;28;20037;-57
2021/06/15 04:48:05;;;;;;;0.87;0.57;;;14.30;99.90;;;;;;4150590;28;20021;-60
2021/06/15 04:50:18;;;;;;;1.17;0.37;;;14.40;99.90;;;;;;4141292;28;20030;-59
2021/06/15 04:52:23;;;;;;;1.70;0.50;;;14.50;99.90;;;;;;4140430;28;20029;-54
2021/06/15 04:54:31;;;;;;;3.90;0.70;;;14.60;99.90;;;;;;4150752;28;20114;-59
2021/06/15 04:56:33;;;;;;;1.27;0.30;;;14.60;99.90;;;;;;4154850;28;20083;-59
2021/06/15 04:58:35;;;;;;;1.70;0.60;;;14.60;99.90;;;;;;4155943;28;20080;-57
2021/06/15 05:00:38;;;;;;;2.40;0.63;;;14.60;99.90;;;;;;4153267;28;20029;-56
2021/06/15 05:02:41;;;;;;;5.33;0.90;;;14.60;99.90;;;;;;4139116;28;20096;-57
2021/06/15 05:04:42;;;;;;;10.63;4.67;;;14.70;99.90;;;;;;4150155;28;20029;-60
2021/06/15 05:06:44;;;;;;;1.47;0.50;;;14.90;99.90;;;;;;4142283;28;20462;-60
2021/06/15 05:08:56;;;;;;;3.80;0.60;;;15.00;99.90;;;;;;4143855;28;21034;-58
2021/06/15 05:10:58;;;;;;;1.80;0.80;;;15.20;99.90;;;;;;4153977;28;20069;-61
2021/06/15 05:13:03;;;;;;;8.73;0.90;;;15.40;99.90;;;;;;4158614;28;20021;-58
2021/06/15 05:15:14;;;;;;;2.67;1.00;;;15.60;99.90;;;;;;4156943;28;20045;-58
2021/06/15 05:17:19;;;;;;;1.20;0.53;;;15.70;99.90;;;;;;4139110;28;20449;-54
2021/06/15 05:19:22;;;;;;;7.33;0.60;;;15.80;99.90;;;;;;4158294;28;20079;-59
2021/06/15 05:21:47;;;;;;;3.50;0.53;;;15.90;99.90;;;;;;4158012;28;20046;-61
2021/06/15 05:23:55;;;;;;;0.60;0.35;;;16.00;99.90;;;;;;4158575;28;20501;-63
2021/06/15 05:25:56;;;;;;;2.17;0.60;;;16.00;99.90;;;;;;4158312;28;20115;-61
2021/06/15 05:27:57;;;;;;;3.60;0.60;;;15.90;99.90;;;;;;4158663;28;20071;-62
2021/06/15 05:30:00;;;;;;;12.80;1.03;;;15.90;99.90;;;;;;4158168;28;20448;-61
2021/06/15 05:32:03;;;;;;;1.35;0.60;;;15.80;99.90;;;;;;4157794;28;20607;-61
2021/06/15 05:34:04;;;;;;;6.00;0.80;;;15.70;99.90;;;;;;4150955;28;20096;-63
2021/06/15 05:36:05;;;;;;;2.92;0.40;;;15.80;99.90;;;;;;4147646;28;20079;-56
2021/06/15 05:38:09;;;;;;;1.63;0.45;;;15.80;99.90;;;;;;4153879;28;20083;-63
2021/06/15 05:40:12;;;;;;;1.35;0.60;;;15.80;99.90;;;;;;4155322;28;20596;-58
2021/06/15 05:42:13;;;;;;;1.92;0.57;;;15.80;99.90;;;;;;4155242;28;20037;-57
2021/06/15 05:44:14;;;;;;;0.55;0.30;;;15.80;99.90;;;;;;4156769;28;20091;-57
2021/06/15 05:46:15;;;;;;;1.17;0.70;;;15.80;99.90;;;;;;4157421;28;20492;-60
2021/06/15 05:48:16;;;;;;;2.15;1.00;;;15.90;99.90;;;;;;4157044;28;20100;-55
2021/06/15 05:50:18;;;;;;;1.27;0.70;;;16.00;99.90;;;;;;4158699;28;20175;-55
2021/06/15 05:52:19;;;;;;;3.72;0.70;;;15.90;99.90;;;;;;4158588;28;20029;-57
2021/06/15 05:54:21;;;;;;;1.90;1.10;;;15.90;99.90;;;;;;4158484;28;20096;-58
2021/06/15 05:56:22;;;;;;;1.67;0.88;;;15.90;99.90;;;;;;4158009;28;20509;-59
2021/06/15 05:58:23;;;;;;;8.57;5.13;;;16.00;99.90;;;;;;4158661;28;20037;-61
2021/06/15 06:00:25;;;;;;;3.25;1.73;;;16.00;99.90;;;;;;4156560;28;20125;-57
2021/06/15 06:02:26;;;;;;;1.98;0.70;;;16.10;99.90;;;;;;4158242;28;20041;-57
2021/06/15 06:04:31;;;;;;;1.73;0.80;;;16.20;99.90;;;;;;4159036;28;20056;-59
2021/06/15 06:08:52;;;;;;;4.88;0.55;;;16.40;99.90;;;;;;4142498;28;20088;-58
2021/06/15 06:10:53;;;;;;;0.55;0.40;;;16.50;99.90;;;;;;4141416;28;20038;-60
2021/06/15 06:12:54;;;;;;;0.73;0.68;;;16.40;99.90;;;;;;4142587;28;20115;-57
2021/06/15 06:14:55;;;;;;;1.27;0.70;;;16.40;99.90;;;;;;4141341;28;20474;-60
2021/06/15 06:16:57;;;;;;;0.85;0.55;;;16.40;99.90;;;;;;4141406;28;20445;-60
2021/06/15 06:18:59;;;;;;;4.28;0.50;;;16.40;99.90;;;;;;4141206;28;20034;-61
2021/06/15 06:21:03;;;;;;;3.35;0.40;;;16.40;99.90;;;;;;4142288;28;20111;-61
2021/06/15 06:23:06;;;;;;;3.30;0.50;;;16.40;99.90;;;;;;4140852;28;20029;-60
2021/06/15 06:25:09;;;;;;;0.70;0.32;;;16.60;99.90;;;;;;4142118;28;20064;-61
2021/06/15 06:27:10;;;;;;;1.10;0.68;;;16.60;99.90;;;;;;4144682;28;20026;-60
2021/06/15 06:29:13;;;;;;;2.95;0.43;;;16.70;99.90;;;;;;4146601;28;20143;-58
2021/06/15 06:31:14;;;;;;;1.00;0.50;;;16.70;99.90;;;;;;4151066;28;20034;-61
2021/06/15 06:33:15;;;;;;;1.02;0.93;;;16.80;99.90;;;;;;4143701;28;20057;-61
2021/06/15 06:35:16;;;;;;;2.90;0.98;;;16.90;99.90;;;;;;4145329;28;20072;-61
2021/06/15 06:37:17;;;;;;;2.17;1.77;;;17.00;99.90;;;;;;4149228;28;20081;-59
2021/06/15 06:39:18;;;;;;;1.90;1.25;;;17.00;99.90;;;;;;4149674;28;20091;-60
2021/06/15 06:41:20;;;;;;;0.95;0.80;;;17.10;99.90;;;;;;4157397;28;20087;-60
2021/06/15 06:43:21;;;;;;;4.18;1.67;;;17.10;99.90;;;;;;4157977;28;20042;-59
2021/06/15 06:45:23;;;;;;;2.35;1.00;;;17.30;99.90;;;;;;4157451;28;20038;-59
2021/06/15 06:47:25;;;;;;;4.32;0.80;;;17.20;99.90;;;;;;4157670;28;20115;-59
2021/06/15 06:49:26;;;;;;;6.57;4.00;;;17.20;99.90;;;;;;4156661;28;20041;-60
2021/06/15 06:51:27;;;;;;;7.32;4.05;;;17.10;99.90;;;;;;4158035;28;20076;-58
2021/06/15 06:53:29;;;;;;;3.67;1.75;;;17.10;99.90;;;;;;4157331;28;20839;-60
2021/06/15 06:55:30;;;;;;;5.78;3.33;;;17.20;99.90;;;;;;4157187;28;20068;-58
2021/06/15 06:57:31;;;;;;;7.53;4.07;;;17.20;99.90;;;;;;4146473;28;20069;-58
2021/06/15 06:59:33;;;;;;;3.25;1.80;;;17.30;99.90;;;;;;4141147;28;20445;-59
2021/06/15 07:01:34;;;;;;;5.00;2.70;;;17.30;99.90;;;;;;4140086;28;20449;-59
2021/06/15 07:03:35;;;;;;;2.78;2.13;;;17.30;99.90;;;;;;4140196;28;20092;-60
2021/06/15 07:05:36;;;;;;;7.47;3.72;;;17.20;99.90;;;;;;4141048;28;20092;-59
2021/06/15 07:07:37;;;;;;;4.13;2.88;;;17.20;99.90;;;;;;4140189;28;20045;-60
2021/06/15 07:09:38;;;;;;;3.28;2.13;;;17.30;99.90;;;;;;4140952;28;20038;-59
2021/06/15 07:11:40;;;;;;;4.47;3.28;;;17.20;99.90;;;;;;4140834;28;20033;-60
2021/06/15 07:13:41;;;;;;;2.03;1.20;;;17.20;99.90;;;;;;4140822;28;20532;-60
2021/06/15 07:15:42;;;;;;;3.63;2.08;;;17.30;99.90;;;;;;4140269;28;20096;-62
2021/06/15 07:17:43;;;;;;;1.27;0.80;;;17.40;99.90;;;;;;4141220;28;20494;-59
2021/06/15 07:19:44;;;;;;;1.80;0.43;;;17.50;99.90;;;;;;4140553;28;20084;-61
2021/06/15 07:21:45;;;;;;;0.88;0.47;;;17.60;99.90;;;;;;4154246;28;21308;-60
2021/06/15 07:23:47;;;;;;;2.67;0.35;;;17.70;99.90;;;;;;4169883;28;20102;-60
2021/06/15 07:25:48;;;;;;;9.18;1.35;;;17.90;99.90;;;;;;4173367;28;20098;-58
2021/06/15 07:27:49;;;;;;;2.58;0.68;;;18.00;99.90;;;;;;4171504;28;20029;-61
2021/06/15 07:29:50;;;;;;;6.85;2.70;;;18.10;99.90;;;;;;4173214;28;20037;-61
2021/06/15 07:31:51;;;;;;;1.52;0.82;;;18.30;99.90;;;;;;4157909;28;20041;-60
2021/06/15 07:33:52;;;;;;;1.95;0.80;;;18.50;99.90;;;;;;4156734;28;20102;-60
2021/06/15 07:35:53;;;;;;;1.73;0.50;;;18.70;99.90;;;;;;4155887;28;20025;-61
2021/06/15 07:37:56;;;;;;;0.50;0.32;;;18.70;99.90;;;;;;4155368;28;21633;-60
2021/06/15 07:39:58;;;;;;;1.33;0.50;;;18.70;99.90;;;;;;4156303;28;20068;-59
2021/06/15 07:41:59;;;;;;;2.22;1.05;;;18.70;99.90;;;;;;4138524;28;20852;-62
2021/06/15 07:44:00;;;;;;;3.60;1.15;;;18.70;99.90;;;;;;4152589;28;20087;-66
2021/06/15 07:46:01;;;;;;;2.75;0.90;;;18.70;99.90;;;;;;4140043;28;20046;-66
2021/06/15 07:48:03;;;;;;;0.77;0.73;;;18.80;99.90;;;;;;4140300;28;20417;-63
2021/06/15 07:50:04;;;;;;;1.77;1.48;;;18.80;99.90;;;;;;4139024;28;20690;-64
2021/06/15 07:52:05;;;;;;;4.40;1.45;;;18.80;99.90;;;;;;4140255;28;20034;-63
2021/06/15 07:54:07;;;;;;;2.63;0.50;;;18.80;99.90;;;;;;4138679;28;20030;-62
2021/06/15 07:56:08;;;;;;;0.50;0.40;;;18.80;99.90;;;;;;4121872;28;20054;-63
2021/06/15 07:58:09;;;;;;;1.08;0.22;;;18.80;99.90;;;;;;4139021;28;20096;-64
2021/06/15 08:00:11;;;;;;;1.23;0.43;;;18.90;99.90;;;;;;4139781;28;20034;-67
2021/06/15 08:02:13;;;;;;;1.73;1.23;;;18.90;99.90;;;;;;4138966;28;20088;-66
2021/06/15 08:04:16;;;;;;;3.13;0.75;;;19.00;99.90;;;;;;4150365;28;20068;-62
2021/06/15 08:06:17;;;;;;;2.53;0.73;;;19.10;99.90;;;;;;4148870;28;20072;-61
2021/06/15 08:08:18;;;;;;;0.75;0.60;;;19.20;99.90;;;;;;4138372;28;20042;-60
2021/06/15 08:10:20;;;;;;;1.67;0.65;;;19.30;99.90;;;;;;4138990;28;20030;-62
2021/06/15 08:12:21;;;;;;;1.95;0.50;;;19.50;99.90;;;;;;4138799;28;20324;-64
2021/06/15 08:14:22;;;;;;;1.63;0.30;;;20.00;99.90;;;;;;4139799;28;20459;-61
2021/06/15 08:16:24;;;;;;;1.55;0.38;;;20.40;99.90;;;;;;4138739;28;20041;-62
2021/06/15 08:18:25;;;;;;;1.17;0.32;;;20.70;99.90;;;;;;4139719;28;20018;-60
2021/06/15 08:20:26;;;;;;;0.88;0.30;;;21.00;99.90;;;;;;4140029;28;20036;-60
2021/06/15 08:22:27;;;;;;;2.88;0.40;;;21.20;99.90;;;;;;4142103;28;20470;-62
2021/06/15 08:24:28;;;;;;;0.77;0.40;;;21.50;99.90;;;;;;4138843;28;20088;-62
2021/06/15 08:26:30;;;;;;;0.20;0.20;;;21.60;99.90;;;;;;4144286;28;20079;-61
2021/06/15 08:28:31;;;;;;;2.70;0.20;;;21.80;99.90;;;;;;4154492;28;20485;-63
2021/06/15 08:30:33;;;;;;;0.75;0.30;;;22.00;99.90;;;;;;4156384;28;20470;-62
2021/06/15 08:32:35;;;;;;;1.13;0.25;;;22.10;99.90;;;;;;4155064;28;20091;-62
2021/06/15 08:34:37;;;;;;;0.55;0.20;;;22.20;99.90;;;;;;4149856;28;20038;-59
2021/06/15 08:36:38;;;;;;;3.58;0.50;;;22.30;99.90;;;;;;4145364;28;20022;-61
2021/06/15 08:38:39;;;;;;;1.05;0.30;;;22.30;99.90;;;;;;4155649;28;20060;-62
2021/06/15 08:40:40;;;;;;;1.15;0.70;;;22.30;99.90;;;;;;4154280;28;20084;-61
2021/06/15 08:42:42;;;;;;;2.97;1.42;;;22.60;99.80;;;;;;4151281;28;20049;-62
2021/06/15 08:44:44;;;;;;;1.55;0.88;;;22.50;99.50;;;;;;4153452;28;20107;-64
2021/06/15 08:46:46;;;;;;;5.78;1.50;;;22.20;99.20;;;;;;4151567;28;20087;-62
2021/06/15 08:48:47;;;;;;;0.88;0.70;;;22.20;99.60;;;;;;4154913;28;20917;-62
2021/06/15 08:50:49;;;;;;;0.80;0.80;;;22.00;99.40;;;;;;4154431;28;20877;-63
2021/06/15 08:52:51;;;;;;;1.20;1.10;;;21.90;99.40;;;;;;4153734;28;20064;-63
2021/06/15 08:54:54;;;;;;;3.47;1.63;;;21.60;99.20;;;;;;4153751;28;20033;-64
2021/06/15 08:56:55;;;;;;;1.40;1.30;;;21.50;99.80;;;;;;4155663;28;20674;-62
2021/06/15 08:59:17;;;;;;;4.00;1.13;;;21.20;99.90;;;;;;4153516;28;20053;-61
2021/06/15 09:01:18;;;;;;;3.28;0.73;;;21.20;99.90;;;;;;4155410;28;20103;-63
2021/06/15 09:03:19;;;;;;;5.05;0.90;;;21.30;99.90;;;;;;4153543;28;20112;-61
2021/06/15 09:05:20;;;;;;;1.55;0.52;;;21.10;99.90;;;;;;4155607;28;20038;-61
2021/06/15 09:07:22;;;;;;;4.18;1.00;;;21.00;99.90;;;;;;4152325;28;20393;-62
2021/06/15 09:09:43;;;;;;;7.00;2.45;;;20.90;99.90;;;;;;4154623;28;20045;-63
2021/06/15 09:11:57;;;;;;;;;;;21.00;99.90;;;;;;4150360;28;20115;-62
2021/06/15 09:13:58;;;;;;;4.75;1.85;;;21.10;99.90;;;;;;4145140;28;20427;-64
2021/06/15 09:16:00;;;;;;;11.15;2.85;;;20.90;99.90;;;;;;4137956;28;20088;-65
2021/06/15 09:18:01;;;;;;;1.90;0.90;;;21.20;99.90;;;;;;4139307;28;20424;-65
2021/06/15 09:20:23;;;;;;;13.13;3.50;;;21.10;99.90;;;;;;4137778;28;21508;-64
2021/06/15 09:22:25;;;;;;;2.22;0.90;;;21.20;99.90;;;;;;4149026;28;20045;-63
2021/06/15 09:24:26;;;;;;;5.00;2.25;;;21.10;99.90;;;;;;4154747;28;20088;-62
2021/06/15 09:26:49;;;;;;;14.13;3.15;;;21.00;99.90;;;;;;4154800;28;20084;-63
2021/06/15 09:28:51;;;;;;;3.80;2.83;;;21.00;99.90;;;;;;4148660;28;20037;-63
2021/06/15 09:31:10;;;;;;;6.65;2.80;;;21.40;99.90;;;;;;4149844;28;20468;-60
2021/06/15 09:33:11;;;;;;;2.95;0.98;;;21.40;99.90;;;;;;4151248;28;20857;-61
2021/06/15 09:35:16;;;;;;;2.67;1.55;;;21.30;99.90;;;;;;4139784;28;20100;-63
2021/06/15 09:37:26;;;;;;;3.47;2.08;;;21.40;99.90;;;;;;4139435;28;20104;-61
2021/06/15 09:39:27;;;;;;;3.95;1.00;;;21.40;99.90;;;;;;4139399;28;20421;-63
2021/06/15 09:41:38;;;;;;;10.85;2.75;;;21.30;99.90;;;;;;4139884;28;20046;-61
2021/06/15 09:43:39;;;;;;;3.20;1.45;;;21.40;99.90;;;;;;4158544;28;20038;-63
2021/06/15 09:45:45;;;;;;;4.57;1.67;;;21.60;99.90;;;;;;4161684;28;20067;-61
2021/06/15 09:47:46;;;;;;;6.30;0.95;;;21.50;99.90;;;;;;4151684;28;20042;-63
2021/06/15 09:49:47;;;;;;;3.65;0.50;;;21.30;99.90;;;;;;4137860;28;20041;-63
2021/06/15 09:52:16;;;;;;;6.30;1.20;;;21.40;99.90;;;;;;4141054;28;20033;-64
2021/06/15 09:54:38;;;;;;;14.05;2.00;;;21.50;99.90;;;;;;4142737;28;20359;-61
2021/06/15 09:56:40;;;;;;;4.32;2.15;;;21.70;99.90;;;;;;4142461;28;20541;-61
2021/06/15 09:58:47;;;;;;;3.53;1.45;;;21.90;99.90;;;;;;4148190;28;20416;-62
2021/06/15 10:00:55;;;;;;;1.13;0.85;;;22.10;99.90;;;;;;4155333;28;20091;-61
2021/06/15 10:03:00;;;;;;;2.60;1.80;;;22.20;99.90;;;;;;4141390;28;20482;-61
2021/06/15 10:05:20;;;;;;;1.80;1.25;;;22.40;99.90;;;;;;4142191;28;20022;-63
2021/06/15 10:07:29;;;;;;;1.80;0.70;;;22.40;99.90;;;;;;4155015;28;20083;-63
2021/06/15 10:09:35;;;;;;;3.58;0.73;;;22.40;99.90;;;;;;4150686;28;20041;-64
2021/06/15 10:11:37;;;;;;;5.53;1.73;;;22.20;99.90;;;;;;4155488;28;20132;-64
2021/06/15 10:13:40;;;;;;;1.35;1.10;;;22.10;99.90;;;;;;4134416;28;20419;-63
2021/06/15 10:15:43;;;;;;;1.55;0.55;;;22.20;99.90;;;;;;4152493;28;20450;-63
2021/06/15 10:17:46;;;;;;;3.20;0.60;;;22.50;99.90;;;;;;4141077;28;20556;-61
2021/06/15 10:19:47;;;;;;;1.13;1.02;;;22.60;99.90;;;;;;4153300;28;20561;-63
2021/06/15 10:21:48;;;;;;;5.05;1.00;;;22.70;99.90;;;;;;4151550;28;20591;-62
2021/06/15 10:23:50;;;;;;;4.95;1.98;;;22.60;99.90;;;;;;4145049;28;20041;-62
2021/06/15 10:25:51;;;;;;;2.15;0.45;;;22.50;99.90;;;;;;4140943;28;20424;-60
2021/06/15 10:27:56;;;;;;;1.95;0.40;;;22.60;99.90;;;;;;4141634;28;20061;-62
2021/06/15 10:29:58;;;;;;;2.20;0.45;;;22.60;99.90;;;;;;4151386;28;20034;-61
2021/06/15 10:32:21;;;;;;;4.95;1.00;;;22.80;99.90;;;;;;4158016;28;20478;-61
2021/06/15 10:35:07;;;;;;;7.03;1.70;;;22.90;99.70;;;;;;4148716;28;20051;-61
2021/06/15 10:37:08;;;;;;;3.67;0.95;;;22.60;99.80;;;;;;4058576;29;20548;-60
2021/06/15 10:39:18;;;;;;;0.60;0.40;;;22.60;99.90;;;;;;4109750;28;20158;-61
2021/06/15 10:41:24;;;;;;;7.15;1.10;;;22.80;99.90;;;;;;4140572;28;20784;-60
2021/06/15 10:43:28;;;;;;;5.00;0.55;;;22.90;99.80;;;;;;4143643;28;20091;-61
2021/06/15 10:45:30;;;;;;;0.82;0.50;;;23.00;99.70;;;;;;4157202;28;20064;-61
2021/06/15 10:47:31;;;;;;;3.30;1.45;;;23.10;99.40;;;;;;4156953;28;20083;-62
2021/06/15 10:50:01;;;;;;;3.95;1.20;;;23.10;99.20;;;;;;4151244;28;20105;-57
2021/06/15 10:52:02;;;;;;;0.80;0.40;;;23.20;99.40;;;;;;4143102;28;20390;-61